Foothill Ranch, California
Current Conditions -  °F | °C
As of 10:53 PM on Sunday 21 Dec 2014 (Local Time) from KSNA Reporting Station
Haze Haze  
Wind Chill: 60°   Ceiling: Unl
Heat Index: 60°   Visibility: 4mi
Dew Point: 54°   Wind: 0mph
Humidity: 80%   Direction: NA
Pressure: 30.06"   Gusts: NA
Location:  33.62°N, 117.69°W
Report Text: KSNA 220653Z 00000KT 4SM BR FEW005 16/12 A3006 RMK AO2 SLP179 T01560122
Loading
Personal Weather Stations






























Interactive Weather Map New forecast layout! Learn more

10-Day Weather Forecast

Advertisements
Track Severe Weather on mobile